| Time | Avg. Air Temp | Dew Point | Avg. Rel Humidity | Avg. 2 Min Wind Speed | Max Gust Velocity | MGV Time | MGV Direction | Avg. Spot Wind Velocity |
|---|---|---|---|---|---|---|---|---|
| 2026-05-06 10:30:00 | 5° C | -4° C | 50% | 8 km/h | 9 km/h | 10:29:00 | S | 8 km/h |
| 09:30:00 | 5° C | -5° C | 47% | 10 km/h | 12 km/h | 09:27:00 | S | 10 km/h |
| 08:30:00 | 5° C | -3° C | 53% | 8 km/h | 12 km/h | 08:26:00 | W | 9 km/h |
| 07:30:00 | 5° C | -4° C | 49% | 20 km/h | 25 km/h | 07:29:00 | SW | 21 km/h |
| 06:30:00 | 6° C | -6° C | 45% | 21 km/h | 25 km/h | 06:26:00 | W | 22 km/h |
| 05:30:00 | 6° C | -6° C | 43% | 26 km/h | 29 km/h | 05:28:00 | W | 26 km/h |
| 04:30:00 | 6° C | -6° C | 43% | 25 km/h | 30 km/h | 04:30:00 | W | 26 km/h |
| 03:30:00 | 6° C | -5° C | 43% | 26 km/h | 31 km/h | 03:28:00 | W | 27 km/h |
| 02:30:00 | 6° C | -6° C | 40% | 23 km/h | 27 km/h | 02:29:00 | W | 23 km/h |
| 01:30:00 | 6° C | -6° C | 39% | 19 km/h | 20 km/h | 01:29:00 | W | 19 km/h |
| 00:30:00 | 6° C | -7° C | 38% | 16 km/h | 17 km/h | 00:30:00 | W | 15 km/h |
| 23:30:00 | 6° C | -7° C | 37% | 10 km/h | 10 km/h | 23:30:00 | W | 10 km/h |
| 22:30:00 | 6° C | -8° C | 37% | 9 km/h | 10 km/h | 22:27:00 | NW | 9 km/h |
| 21:30:00 | 6° C | -8° C | 38% | 10 km/h | 12 km/h | 21:27:00 | NE | 10 km/h |
| 20:30:00 | 6° C | -8° C | 37% | 7 km/h | 12 km/h | 20:28:00 | NE | 9 km/h |
| 19:30:00 | 5° C | -7° C | 39% | 2 km/h | 16 km/h | 19:27:00 | SW | 4 km/h |
| 18:30:00 | 5° C | -8° C | 37% | 6 km/h | 21 km/h | 18:28:00 | NE | 7 km/h |
| 17:30:00 | 6° C | -9° C | 35% | 18 km/h | 23 km/h | 17:30:00 | NE | 14 km/h |
| 16:30:00 | 6° C | -7° C | 40% | 3 km/h | 15 km/h | 16:26:00 | NW | 6 km/h |
| 15:30:00 | 5° C | -7° C | 41% | 9 km/h | 18 km/h | 15:27:00 | NW | 9 km/h |
| 14:30:00 | 6° C | -6° C | 42% | 5 km/h | 8 km/h | 14:29:00 | E | 4 km/h |
| 13:30:00 | 4° C | -8° C | 41% | 14 km/h | 16 km/h | 13:30:00 | NE | 12 km/h |
| 12:30:00 | 4° C | -6° C | 47% | 13 km/h | 14 km/h | 12:29:00 | NE | 13 km/h |
| 11:30:00 | 3° C | -7° C | 48% | 6 km/h | 12 km/h | 11:27:00 | E | 7 km/h |
Subpeak Weather
| Time | Avg. Air Temp | Dew Point | Avg. Rel Humidity | Avg. 2 Min Wind Speed | Max Gust Velocity | MGV Time | MGV Direction | Avg. Spot Wind Velocity |
|---|---|---|---|---|---|---|---|---|
| 2026-05-06 10:30:00 | 5° C | -4° C | 50% | 8 km/h | 9 km/h | 10:29:00 | S | 8 km/h |
| 10:25:00 | 5° C | -4° C | 50% | 8 km/h | 13 km/h | 10:21:00 | S | 8 km/h |
| 10:20:00 | 6° C | -4° C | 50% | 9 km/h | 12 km/h | 10:20:00 | S | 7 km/h |
| 10:15:00 | 5° C | -4° C | 50% | 8 km/h | 10 km/h | 10:14:00 | S | 8 km/h |
| 10:10:00 | 5° C | -4° C | 50% | 7 km/h | 10 km/h | 10:07:00 | S | 8 km/h |
| 10:05:00 | 5° C | -4° C | 50% | 9 km/h | 12 km/h | 10:05:00 | S | 8 km/h |
| 10:00:00 | 5° C | -4° C | 50% | 7 km/h | 9 km/h | 09:56:00 | S | 7 km/h |
| 09:55:00 | 5° C | -4° C | 50% | 10 km/h | 11 km/h | 09:54:00 | S | 9 km/h |
| 09:50:00 | 5° C | -4° C | 48% | 9 km/h | 11 km/h | 09:50:00 | S | 9 km/h |
| 09:45:00 | 5° C | -5° C | 48% | 11 km/h | 14 km/h | 09:43:00 | S | 10 km/h |
| 09:40:00 | 5° C | -5° C | 47% | 12 km/h | 14 km/h | 09:39:00 | S | 9 km/h |
| 09:35:00 | 5° C | -5° C | 48% | 8 km/h | 11 km/h | 09:32:00 | S | 9 km/h |
| 09:30:00 | 5° C | -5° C | 47% | 10 km/h | 12 km/h | 09:27:00 | S | 10 km/h |




